New Cumberland, Pennsylvania
Current Conditions -  °F | °C
As of 3:56 PM on Saturday 22 Nov 2014 (Local Time) from KCXY Reporting Station
Overcast Overcast  
Wind Chill: 39°   Ceiling: 4500
Heat Index: 43°   Visibility: 10mi
Dew Point: 15°   Wind: 6mph
Humidity: 32%   Direction: 230°SW
Pressure: 30.28"   Gusts: NA
Location:  40.23°N, 76.87°W
Report Text: KCXY 222056Z 23005KT 10SM OVC045 06/M09 A3028 RMK AO2 SLP259 T00611094 56021
Loading
Personal Weather Stations






























Interactive Weather Map New forecast layout! Learn more

10-Day Weather Forecast

Advertisements
Track Severe Weather on mobile